sensor_id;sensor_type;location;lat;lon;timestamp;pressure;altitude;pressure_sealevel;temperature;humidity
78841;BME280;68379;47.190;27.558;2023-07-31T00:01:43;99267.58;;;18.85;80.56
78841;BME280;68379;47.190;27.558;2023-07-31T00:04:15;99267.92;;;18.89;79.97
78841;BME280;68379;47.190;27.558;2023-07-31T00:06:46;99273.05;;;18.93;80.50
78841;BME280;68379;47.190;27.558;2023-07-31T00:09:18;99277.67;;;18.95;79.57
78841;BME280;68379;47.190;27.558;2023-07-31T00:11:50;99281.70;;;18.96;79.07
78841;BME280;68379;47.190;27.558;2023-07-31T00:14:22;99283.96;;;18.99;79.20
78841;BME280;68379;47.190;27.558;2023-07-31T00:16:53;99289.68;;;19.01;78.79
78841;BME280;68379;47.190;27.558;2023-07-31T00:19:25;99283.98;;;19.03;79.26
78841;BME280;68379;47.190;27.558;2023-07-31T00:21:56;99282.23;;;19.02;80.50
78841;BME280;68379;47.190;27.558;2023-07-31T00:24:28;99283.15;;;19.04;79.84
78841;BME280;68379;47.190;27.558;2023-07-31T00:27:00;99282.25;;;19.08;79.83
78841;BME280;68379;47.190;27.558;2023-07-31T00:29:31;99277.73;;;19.12;80.17
78841;BME280;68379;47.190;27.558;2023-07-31T00:32:03;99275.00;;;19.14;79.65
78841;BME280;68379;47.190;27.558;2023-07-31T00:34:35;99272.90;;;19.16;79.54
78841;BME280;68379;47.190;27.558;2023-07-31T00:37:07;99264.13;;;19.18;79.64
78841;BME280;68379;47.190;27.558;2023-07-31T00:39:38;99256.42;;;19.18;79.28
78841;BME280;68379;47.190;27.558;2023-07-31T00:42:10;99255.13;;;19.18;80.48
78841;BME280;68379;47.190;27.558;2023-07-31T00:44:41;99255.02;;;19.15;81.53
78841;BME280;68379;47.190;27.558;2023-07-31T00:47:13;99253.34;;;19.10;82.13
78841;BME280;68379;47.190;27.558;2023-07-31T00:49:45;99249.85;;;19.04;82.12
78841;BME280;68379;47.190;27.558;2023-07-31T00:52:17;99250.15;;;18.96;83.95
78841;BME280;68379;47.190;27.558;2023-07-31T00:54:49;99250.67;;;18.90;83.07
78841;BME280;68379;47.190;27.558;2023-07-31T00:57:21;99249.72;;;18.89;82.35
78841;BME280;68379;47.190;27.558;2023-07-31T00:59:53;99249.09;;;18.92;81.52
78841;BME280;68379;47.190;27.558;2023-07-31T01:02:25;99252.86;;;18.94;82.12
78841;BME280;68379;47.190;27.558;2023-07-31T01:04:57;99257.63;;;18.95;82.63
78841;BME280;68379;47.190;27.558;2023-07-31T01:07:45;99264.10;;;18.95;81.68
78841;BME280;68379;47.190;27.558;2023-07-31T01:10:23;99261.48;;;18.94;81.98
78841;BME280;68379;47.190;27.558;2023-07-31T01:12:58;99254.98;;;18.90;81.72
78841;BME280;68379;47.190;27.558;2023-07-31T01:15:30;99248.36;;;18.86;83.10
78841;BME280;68379;47.190;27.558;2023-07-31T01:18:02;99241.36;;;18.80;82.75
78841;BME280;68379;47.190;27.558;2023-07-31T01:20:34;99241.77;;;18.77;82.27
78841;BME280;68379;47.190;27.558;2023-07-31T01:23:32;99243.94;;;18.77;82.70
78841;BME280;68379;47.190;27.558;2023-07-31T01:26:13;99250.27;;;18.73;84.50
78841;BME280;68379;47.190;27.558;2023-07-31T01:28:59;99254.29;;;18.72;82.88
78841;BME280;68379;47.190;27.558;2023-07-31T01:31:33;99256.61;;;18.73;82.44
78841;BME280;68379;47.190;27.558;2023-07-31T01:34:07;99255.08;;;18.76;82.83
78841;BME280;68379;47.190;27.558;2023-07-31T01:36:40;99252.38;;;18.76;82.87
78841;BME280;68379;47.190;27.558;2023-07-31T01:39:11;99253.21;;;18.75;82.17
78841;BME280;68379;47.190;27.558;2023-07-31T01:41:45;99244.17;;;18.73;83.26
78841;BME280;68379;47.190;27.558;2023-07-31T01:44:17;99248.92;;;18.73;83.03
78841;BME280;68379;47.190;27.558;2023-07-31T01:46:49;99253.29;;;18.71;82.21
78841;BME280;68379;47.190;27.558;2023-07-31T01:49:20;99252.21;;;18.71;83.19
78841;BME280;68379;47.190;27.558;2023-07-31T01:51:52;99252.58;;;18.71;82.58
78841;BME280;68379;47.190;27.558;2023-07-31T01:54:24;99258.28;;;18.74;82.50
78841;BME280;68379;47.190;27.558;2023-07-31T01:56:56;99259.40;;;18.76;81.96
78841;BME280;68379;47.190;27.558;2023-07-31T01:59:27;99259.48;;;18.79;81.81
78841;BME280;68379;47.190;27.558;2023-07-31T02:01:59;99262.66;;;18.82;82.03
78841;BME280;68379;47.190;27.558;2023-07-31T02:04:30;99265.59;;;18.81;81.45
78841;BME280;68379;47.190;27.558;2023-07-31T02:07:02;99265.23;;;18.79;81.61
78841;BME280;68379;47.190;27.558;2023-07-31T02:09:34;99264.45;;;18.77;82.12
78841;BME280;68379;47.190;27.558;2023-07-31T03:01:31;99288.39;;;18.56;83.93
78841;BME280;68379;47.190;27.558;2023-07-31T03:04:01;99288.40;;;18.57;83.12
78841;BME280;68379;47.190;27.558;2023-07-31T03:06:30;99284.48;;;18.59;83.85
78841;BME280;68379;47.190;27.558;2023-07-31T03:08:59;99284.66;;;18.62;83.46
78841;BME280;68379;47.190;27.558;2023-07-31T03:11:27;99278.77;;;18.63;83.37
78841;BME280;68379;47.190;27.558;2023-07-31T03:13:56;99281.02;;;18.64;82.76
78841;BME280;68379;47.190;27.558;2023-07-31T03:16:26;99282.48;;;18.64;82.97
78841;BME280;68379;47.190;27.558;2023-07-31T03:18:55;99282.87;;;18.66;83.94
78841;BME280;68379;47.190;27.558;2023-07-31T03:21:25;99279.55;;;18.67;83.56
78841;BME280;68379;47.190;27.558;2023-07-31T03:23:54;99281.56;;;18.69;82.93
78841;BME280;68379;47.190;27.558;2023-07-31T03:26:23;99282.05;;;18.69;82.73
78841;BME280;68379;47.190;27.558;2023-07-31T03:28:51;99287.19;;;18.68;82.31
78841;BME280;68379;47.190;27.558;2023-07-31T03:31:20;99286.08;;;18.68;82.00
78841;BME280;68379;47.190;27.558;2023-07-31T03:33:49;99285.71;;;18.71;82.86
78841;BME280;68379;47.190;27.558;2023-07-31T03:36:18;99287.52;;;18.75;82.88
78841;BME280;68379;47.190;27.558;2023-07-31T03:38:47;99286.92;;;18.80;82.57
78841;BME280;68379;47.190;27.558;2023-07-31T03:41:16;99287.56;;;18.85;82.34
78841;BME280;68379;47.190;27.558;2023-07-31T03:43:46;99287.02;;;18.88;82.10
78841;BME280;68379;47.190;27.558;2023-07-31T03:46:15;99287.54;;;18.88;81.99
78841;BME280;68379;47.190;27.558;2023-07-31T03:48:44;99290.79;;;18.87;81.91
78841;BME280;68379;47.190;27.558;2023-07-31T03:51:12;99291.83;;;18.88;81.89
78841;BME280;68379;47.190;27.558;2023-07-31T03:53:41;99296.52;;;18.90;81.99
78841;BME280;68379;47.190;27.558;2023-07-31T03:56:10;99299.70;;;18.90;81.71
78841;BME280;68379;47.190;27.558;2023-07-31T03:58:40;99304.33;;;18.91;81.81
78841;BME280;68379;47.190;27.558;2023-07-31T04:01:09;99307.63;;;18.92;81.76
78841;BME280;68379;47.190;27.558;2023-07-31T04:03:38;99308.57;;;18.94;81.36
78841;BME280;68379;47.190;27.558;2023-07-31T04:06:07;99306.05;;;18.94;81.37
78841;BME280;68379;47.190;27.558;2023-07-31T04:08:36;99304.91;;;18.95;81.57
78841;BME280;68379;47.190;27.558;2023-07-31T04:11:05;99307.54;;;18.95;81.26
78841;BME280;68379;47.190;27.558;2023-07-31T04:13:34;99311.65;;;19.00;81.36
78841;BME280;68379;47.190;27.558;2023-07-31T04:16:03;99310.18;;;19.04;81.09
78841;BME280;68379;47.190;27.558;2023-07-31T04:18:32;99314.56;;;19.05;80.93
78841;BME280;68379;47.190;27.558;2023-07-31T04:21:01;99317.83;;;19.00;81.02
78841;BME280;68379;47.190;27.558;2023-07-31T04:23:30;99317.85;;;18.92;81.31
78841;BME280;68379;47.190;27.558;2023-07-31T04:25:59;99320.79;;;18.78;83.16
78841;BME280;68379;47.190;27.558;2023-07-31T04:28:28;99326.89;;;18.68;83.61
78841;BME280;68379;47.190;27.558;2023-07-31T04:30:59;99323.38;;;18.65;84.04
78841;BME280;68379;47.190;27.558;2023-07-31T04:33:28;99323.33;;;18.63;83.39
78841;BME280;68379;47.190;27.558;2023-07-31T04:35:58;99327.17;;;18.58;83.47
78841;BME280;68379;47.190;27.558;2023-07-31T04:38:27;99324.52;;;18.53;84.38
78841;BME280;68379;47.190;27.558;2023-07-31T04:40:56;99329.95;;;18.53;85.12
78841;BME280;68379;47.190;27.558;2023-07-31T04:43:25;99332.36;;;18.54;84.85
78841;BME280;68379;47.190;27.558;2023-07-31T04:45:54;99334.23;;;18.55;84.28
78841;BME280;68379;47.190;27.558;2023-07-31T04:48:23;99336.32;;;18.58;84.13
78841;BME280;68379;47.190;27.558;2023-07-31T04:50:52;99338.17;;;18.59;84.38
78841;BME280;68379;47.190;27.558;2023-07-31T04:53:21;99337.53;;;18.60;85.92
78841;BME280;68379;47.190;27.558;2023-07-31T04:55:50;99337.63;;;18.59;85.71
78841;BME280;68379;47.190;27.558;2023-07-31T04:58:19;99340.24;;;18.62;85.11
78841;BME280;68379;47.190;27.558;2023-07-31T05:00:48;99337.35;;;18.65;85.89
78841;BME280;68379;47.190;27.558;2023-07-31T05:03:17;99340.96;;;18.67;85.90
78841;BME280;68379;47.190;27.558;2023-07-31T05:05:46;99339.59;;;18.71;85.50
78841;BME280;68379;47.190;27.558;2023-07-31T05:08:15;99339.71;;;18.71;84.39
78841;BME280;68379;47.190;27.558;2023-07-31T05:10:45;99347.73;;;18.65;83.78
78841;BME280;68379;47.190;27.558;2023-07-31T05:13:14;99351.95;;;18.55;84.17
78841;BME280;68379;47.190;27.558;2023-07-31T05:15:43;99354.15;;;18.50;84.46
78841;BME280;68379;47.190;27.558;2023-07-31T05:18:12;99356.30;;;18.47;85.12
78841;BME280;68379;47.190;27.558;2023-07-31T05:20:41;99359.86;;;18.47;85.98
78841;BME280;68379;47.190;27.558;2023-07-31T05:23:13;99361.75;;;18.51;86.22
78841;BME280;68379;47.190;27.558;2023-07-31T05:25:42;99361.23;;;18.53;86.51
78841;BME280;68379;47.190;27.558;2023-07-31T05:28:12;99363.61;;;18.54;86.42
78841;BME280;68379;47.190;27.558;2023-07-31T05:30:41;99366.17;;;18.58;86.64
78841;BME280;68379;47.190;27.558;2023-07-31T05:33:10;99367.96;;;18.62;86.89
78841;BME280;68379;47.190;27.558;2023-07-31T05:35:39;99368.89;;;18.66;86.71
78841;BME280;68379;47.190;27.558;2023-07-31T05:38:08;99372.39;;;18.70;86.78
78841;BME280;68379;47.190;27.558;2023-07-31T05:40:37;99375.89;;;18.73;86.88
78841;BME280;68379;47.190;27.558;2023-07-31T05:43:06;99376.62;;;18.75;86.91
78841;BME280;68379;47.190;27.558;2023-07-31T05:45:36;99380.54;;;18.78;86.71
78841;BME280;68379;47.190;27.558;2023-07-31T05:48:06;99375.80;;;18.84;87.02
78841;BME280;68379;47.190;27.558;2023-07-31T05:50:35;99383.39;;;18.91;86.21
78841;BME280;68379;47.190;27.558;2023-07-31T05:53:05;99380.91;;;18.98;86.18
78841;BME280;68379;47.190;27.558;2023-07-31T05:55:34;99385.15;;;19.03;85.90
78841;BME280;68379;47.190;27.558;2023-07-31T05:58:03;99389.60;;;19.07;86.28
78841;BME280;68379;47.190;27.558;2023-07-31T06:00:32;99388.49;;;19.10;86.67
78841;BME280;68379;47.190;27.558;2023-07-31T06:03:01;99390.33;;;19.14;85.85
78841;BME280;68379;47.190;27.558;2023-07-31T06:05:31;99390.54;;;19.18;85.13
78841;BME280;68379;47.190;27.558;2023-07-31T06:08:00;99388.61;;;19.22;84.84
78841;BME280;68379;47.190;27.558;2023-07-31T06:10:29;99388.29;;;19.26;85.73
78841;BME280;68379;47.190;27.558;2023-07-31T06:12:58;99392.70;;;19.28;85.36
78841;BME280;68379;47.190;27.558;2023-07-31T06:15:27;99394.26;;;19.34;85.96
78841;BME280;68379;47.190;27.558;2023-07-31T06:17:56;99400.30;;;19.36;85.49
78841;BME280;68379;47.190;27.558;2023-07-31T06:20:27;99406.44;;;19.31;85.07
78841;BME280;68379;47.190;27.558;2023-07-31T06:22:56;99406.11;;;19.29;85.15
78841;BME280;68379;47.190;27.558;2023-07-31T06:25:25;99407.52;;;19.29;85.09
78841;BME280;68379;47.190;27.558;2023-07-31T06:27:54;99405.40;;;19.33;84.92
78841;BME280;68379;47.190;27.558;2023-07-31T06:30:23;99406.67;;;19.37;84.55
78841;BME280;68379;47.190;27.558;2023-07-31T06:32:52;99408.83;;;19.37;84.57
78841;BME280;68379;47.190;27.558;2023-07-31T06:35:21;99409.16;;;19.38;85.13
78841;BME280;68379;47.190;27.558;2023-07-31T06:37:50;99408.83;;;19.37;86.03
78841;BME280;68379;47.190;27.558;2023-07-31T06:40:19;99410.58;;;19.40;85.94
78841;BME280;68379;47.190;27.558;2023-07-31T06:42:48;99410.02;;;19.44;85.66
78841;BME280;68379;47.190;27.558;2023-07-31T06:45:17;99412.23;;;19.44;85.30
78841;BME280;68379;47.190;27.558;2023-07-31T06:47:49;99412.00;;;19.40;85.80
78841;BME280;68379;47.190;27.558;2023-07-31T06:50:18;99416.38;;;19.37;85.10
78841;BME280;68379;47.190;27.558;2023-07-31T06:52:47;99413.88;;;19.34;84.29
78841;BME280;68379;47.190;27.558;2023-07-31T06:55:21;99411.87;;;19.31;84.08
78841;BME280;68379;47.190;27.558;2023-07-31T06:57:52;99410.40;;;19.31;84.68
78841;BME280;68379;47.190;27.558;2023-07-31T07:00:23;99407.66;;;19.38;85.14
78841;BME280;68379;47.190;27.558;2023-07-31T07:02:52;99412.05;;;19.48;85.28
78841;BME280;68379;47.190;27.558;2023-07-31T07:05:21;99411.45;;;19.51;84.93
78841;BME280;68379;47.190;27.558;2023-07-31T07:07:51;99409.58;;;19.52;84.31
78841;BME280;68379;47.190;27.558;2023-07-31T07:10:20;99406.80;;;19.55;83.11
78841;BME280;68379;47.190;27.558;2023-07-31T07:12:49;99411.45;;;19.60;83.21
78841;BME280;68379;47.190;27.558;2023-07-31T07:15:18;99416.61;;;19.64;82.98
78841;BME280;68379;47.190;27.558;2023-07-31T07:17:47;99413.34;;;19.67;83.48
78841;BME280;68379;47.190;27.558;2023-07-31T07:20:17;99413.83;;;19.70;83.19
78841;BME280;68379;47.190;27.558;2023-07-31T07:22:48;99413.39;;;19.71;83.26
78841;BME280;68379;47.190;27.558;2023-07-31T07:25:17;99415.79;;;19.75;83.28
78841;BME280;68379;47.190;27.558;2023-07-31T07:27:46;99413.85;;;19.76;83.22
78841;BME280;68379;47.190;27.558;2023-07-31T07:30:15;99413.86;;;19.78;83.34
78841;BME280;68379;47.190;27.558;2023-07-31T07:32:44;99415.23;;;19.79;83.15
78841;BME280;68379;47.190;27.558;2023-07-31T07:35:13;99415.73;;;19.84;82.91
78841;BME280;68379;47.190;27.558;2023-07-31T07:37:42;99418.36;;;19.84;82.86
78841;BME280;68379;47.190;27.558;2023-07-31T07:40:11;99421.45;;;19.86;82.68
78841;BME280;68379;47.190;27.558;2023-07-31T07:42:40;99426.43;;;19.84;82.38
78841;BME280;68379;47.190;27.558;2023-07-31T07:45:10;99431.52;;;19.75;82.52
78841;BME280;68379;47.190;27.558;2023-07-31T07:47:41;99433.80;;;19.67;82.62
78841;BME280;68379;47.190;27.558;2023-07-31T07:50:11;99434.72;;;19.58;82.78
78841;BME280;68379;47.190;27.558;2023-07-31T07:52:40;99436.08;;;19.54;83.56
78841;BME280;68379;47.190;27.558;2023-07-31T07:55:10;99435.86;;;19.52;83.47
78841;BME280;68379;47.190;27.558;2023-07-31T07:57:39;99437.02;;;19.53;83.97
78841;BME280;68379;47.190;27.558;2023-07-31T08:00:10;99439.33;;;19.54;84.29
78841;BME280;68379;47.190;27.558;2023-07-31T08:02:39;99441.52;;;19.56;83.71
78841;BME280;68379;47.190;27.558;2023-07-31T08:05:09;99445.19;;;19.55;83.08
78841;BME280;68379;47.190;27.558;2023-07-31T08:07:38;99444.34;;;19.51;83.25
78841;BME280;68379;47.190;27.558;2023-07-31T08:10:08;99448.27;;;19.54;83.46
78841;BME280;68379;47.190;27.558;2023-07-31T08:12:37;99446.00;;;19.60;84.03
78841;BME280;68379;47.190;27.558;2023-07-31T08:15:08;99445.62;;;19.69;84.03
78841;BME280;68379;47.190;27.558;2023-07-31T08:17:37;99453.88;;;19.75;83.44
78841;BME280;68379;47.190;27.558;2023-07-31T08:20:09;99457.52;;;19.77;83.33
78841;BME280;68379;47.190;27.558;2023-07-31T08:22:38;99454.23;;;19.76;84.05
78841;BME280;68379;47.190;27.558;2023-07-31T08:25:08;99449.27;;;19.77;84.16
78841;BME280;68379;47.190;27.558;2023-07-31T08:27:37;99445.77;;;19.80;84.08
78841;BME280;68379;47.190;27.558;2023-07-31T08:30:08;99451.36;;;19.86;83.47
78841;BME280;68379;47.190;27.558;2023-07-31T08:32:38;99452.10;;;19.84;83.57
78841;BME280;68379;47.190;27.558;2023-07-31T08:35:07;99451.52;;;19.88;83.61
78841;BME280;68379;47.190;27.558;2023-07-31T08:37:37;99447.33;;;19.98;83.33
78841;BME280;68379;47.190;27.558;2023-07-31T08:40:09;99449.48;;;20.06;83.10
78841;BME280;68379;47.190;27.558;2023-07-31T08:42:45;99455.86;;;20.07;82.68
78841;BME280;68379;47.190;27.558;2023-07-31T08:45:16;99455.00;;;20.03;83.08
78841;BME280;68379;47.190;27.558;2023-07-31T08:47:47;99458.52;;;20.02;83.76
78841;BME280;68379;47.190;27.558;2023-07-31T08:50:18;99462.71;;;20.03;83.77
78841;BME280;68379;47.190;27.558;2023-07-31T08:52:49;99463.59;;;20.01;83.82
78841;BME280;68379;47.190;27.558;2023-07-31T08:55:19;99462.60;;;19.98;83.69
78841;BME280;68379;47.190;27.558;2023-07-31T08:57:52;99464.67;;;19.97;84.03
78841;BME280;68379;47.190;27.558;2023-07-31T09:00:22;99465.08;;;19.96;83.68
78841;BME280;68379;47.190;27.558;2023-07-31T09:02:59;99464.63;;;19.92;83.75
78841;BME280;68379;47.190;27.558;2023-07-31T09:05:31;99465.27;;;19.91;84.26
78841;BME280;68379;47.190;27.558;2023-07-31T09:08:01;99466.77;;;19.88;84.45
78841;BME280;68379;47.190;27.558;2023-07-31T09:10:30;99462.65;;;19.86;85.01
78841;BME280;68379;47.190;27.558;2023-07-31T09:13:00;99465.73;;;19.88;85.03
78841;BME280;68379;47.190;27.558;2023-07-31T09:15:29;99466.71;;;19.91;84.38
78841;BME280;68379;47.190;27.558;2023-07-31T09:18:02;99466.04;;;19.97;83.95
78841;BME280;68379;47.190;27.558;2023-07-31T09:20:32;99465.66;;;20.02;83.85
78841;BME280;68379;47.190;27.558;2023-07-31T09:23:09;99462.86;;;20.07;83.88
78841;BME280;68379;47.190;27.558;2023-07-31T09:25:39;99464.30;;;20.09;83.78
78841;BME280;68379;47.190;27.558;2023-07-31T09:28:10;99463.98;;;20.15;83.68
78841;BME280;68379;47.190;27.558;2023-07-31T09:30:50;99460.95;;;20.19;84.04
78841;BME280;68379;47.190;27.558;2023-07-31T09:33:20;99458.19;;;20.26;83.63
78841;BME280;68379;47.190;27.558;2023-07-31T09:35:49;99458.02;;;20.39;83.72
78841;BME280;68379;47.190;27.558;2023-07-31T09:38:18;99453.40;;;20.51;83.46
78841;BME280;68379;47.190;27.558;2023-07-31T09:40:48;99444.35;;;20.60;83.08
78841;BME280;68379;47.190;27.558;2023-07-31T09:43:20;99441.04;;;20.69;82.79
78841;BME280;68379;47.190;27.558;2023-07-31T09:45:55;99444.44;;;20.77;82.61
78841;BME280;68379;47.190;27.558;2023-07-31T09:48:25;99445.89;;;20.86;82.07
78841;BME280;68379;47.190;27.558;2023-07-31T09:51:05;99448.17;;;20.92;82.06
78841;BME280;68379;47.190;27.558;2023-07-31T09:53:34;99446.20;;;21.00;82.02
78841;BME280;68379;47.190;27.558;2023-07-31T09:56:03;99443.81;;;21.09;81.65
78841;BME280;68379;47.190;27.558;2023-07-31T09:58:35;99442.17;;;21.21;81.43
78841;BME280;68379;47.190;27.558;2023-07-31T10:01:07;99440.68;;;21.35;80.94
78841;BME280;68379;47.190;27.558;2023-07-31T10:03:37;99439.09;;;21.44;80.97
78841;BME280;68379;47.190;27.558;2023-07-31T10:06:10;99441.40;;;21.52;80.21
78841;BME280;68379;47.190;27.558;2023-07-31T10:08:41;99440.44;;;21.62;79.50
78841;BME280;68379;47.190;27.558;2023-07-31T10:11:12;99441.27;;;21.75;79.31
78841;BME280;68379;47.190;27.558;2023-07-31T10:13:43;99441.06;;;21.90;79.16
78841;BME280;68379;47.190;27.558;2023-07-31T10:16:13;99438.21;;;22.04;79.29
78841;BME280;68379;47.190;27.558;2023-07-31T10:18:45;99435.13;;;22.14;78.85
78841;BME280;68379;47.190;27.558;2023-07-31T10:21:15;99434.95;;;22.29;77.84
78841;BME280;68379;47.190;27.558;2023-07-31T10:23:45;99431.44;;;22.43;76.43
78841;BME280;68379;47.190;27.558;2023-07-31T10:26:16;99428.36;;;22.55;76.37
78841;BME280;68379;47.190;27.558;2023-07-31T10:28:46;99428.80;;;22.64;76.56
78841;BME280;68379;47.190;27.558;2023-07-31T10:31:15;99435.73;;;22.72;76.52
78841;BME280;68379;47.190;27.558;2023-07-31T10:33:48;99440.40;;;22.78;75.52
78841;BME280;68379;47.190;27.558;2023-07-31T10:36:19;99441.15;;;22.81;75.08
78841;BME280;68379;47.190;27.558;2023-07-31T10:38:50;99444.45;;;22.86;74.75
78841;BME280;68379;47.190;27.558;2023-07-31T10:41:20;99438.34;;;22.94;74.84
78841;BME280;68379;47.190;27.558;2023-07-31T10:43:59;99437.81;;;22.99;73.91
78841;BME280;68379;47.190;27.558;2023-07-31T10:46:29;99431.58;;;22.98;73.62
78841;BME280;68379;47.190;27.558;2023-07-31T10:49:02;99430.55;;;23.01;74.94
78841;BME280;68379;47.190;27.558;2023-07-31T10:51:35;99429.75;;;23.02;74.35
78841;BME280;68379;47.190;27.558;2023-07-31T10:54:13;99428.06;;;23.14;74.13
78841;BME280;68379;47.190;27.558;2023-07-31T10:56:47;99423.55;;;23.18;72.66
78841;BME280;68379;47.190;27.558;2023-07-31T10:59:20;99423.21;;;23.16;72.70
78841;BME280;68379;47.190;27.558;2023-07-31T11:01:56;99424.27;;;23.21;72.93
78841;BME280;68379;47.190;27.558;2023-07-31T11:04:26;99420.83;;;23.25;71.63
78841;BME280;68379;47.190;27.558;2023-07-31T11:06:59;99420.15;;;23.28;71.68
78841;BME280;68379;47.190;27.558;2023-07-31T11:09:28;99420.36;;;23.36;71.93
78841;BME280;68379;47.190;27.558;2023-07-31T11:11:59;99418.29;;;23.35;71.93
78841;BME280;68379;47.190;27.558;2023-07-31T11:14:28;99416.73;;;23.37;72.19
78841;BME280;68379;47.190;27.558;2023-07-31T11:16:57;99412.36;;;23.40;72.35
78841;BME280;68379;47.190;27.558;2023-07-31T11:19:26;99413.55;;;23.44;71.53
78841;BME280;68379;47.190;27.558;2023-07-31T11:21:56;99414.19;;;23.49;71.23
78841;BME280;68379;47.190;27.558;2023-07-31T11:24:25;99413.12;;;23.47;70.75
78841;BME280;68379;47.190;27.558;2023-07-31T11:26:54;99411.75;;;23.49;71.34
78841;BME280;68379;47.190;27.558;2023-07-31T11:29:28;99408.01;;;23.53;70.93
78841;BME280;68379;47.190;27.558;2023-07-31T11:31:57;99407.34;;;23.57;70.66
78841;BME280;68379;47.190;27.558;2023-07-31T11:34:26;99406.23;;;23.61;70.83
78841;BME280;68379;47.190;27.558;2023-07-31T11:36:55;99408.46;;;23.59;70.83
78841;BME280;68379;47.190;27.558;2023-07-31T11:39:24;99408.50;;;23.58;70.83
78841;BME280;68379;47.190;27.558;2023-07-31T11:42:00;99404.62;;;23.63;70.35
78841;BME280;68379;47.190;27.558;2023-07-31T11:44:38;99405.61;;;23.69;69.94
78841;BME280;68379;47.190;27.558;2023-07-31T11:47:07;99405.08;;;23.70;68.84
78841;BME280;68379;47.190;27.558;2023-07-31T11:49:37;99395.52;;;23.73;69.21
78841;BME280;68379;47.190;27.558;2023-07-31T11:52:07;99391.13;;;23.71;69.02
78841;BME280;68379;47.190;27.558;2023-07-31T11:54:37;99386.05;;;23.76;70.10
78841;BME280;68379;47.190;27.558;2023-07-31T11:57:07;99380.31;;;23.84;69.19
78841;BME280;68379;47.190;27.558;2023-07-31T11:59:37;99378.67;;;23.90;69.05
78841;BME280;68379;47.190;27.558;2023-07-31T12:02:07;99378.55;;;23.93;68.99
78841;BME280;68379;47.190;27.558;2023-07-31T12:04:36;99377.16;;;23.94;68.49
78841;BME280;68379;47.190;27.558;2023-07-31T12:07:07;99375.27;;;23.98;68.45
78841;BME280;68379;47.190;27.558;2023-07-31T12:09:36;99374.63;;;24.02;68.29
78841;BME280;68379;47.190;27.558;2023-07-31T12:12:08;99372.89;;;24.05;66.85
78841;BME280;68379;47.190;27.558;2023-07-31T12:14:42;99373.89;;;24.13;67.72
78841;BME280;68379;47.190;27.558;2023-07-31T12:17:12;99375.92;;;24.23;67.39
78841;BME280;68379;47.190;27.558;2023-07-31T12:19:41;99377.81;;;24.23;66.74
78841;BME280;68379;47.190;27.558;2023-07-31T12:22:13;99375.12;;;24.17;66.63
78841;BME280;68379;47.190;27.558;2023-07-31T12:24:42;99372.15;;;24.16;66.88
78841;BME280;68379;47.190;27.558;2023-07-31T12:27:13;99368.42;;;24.17;67.21
78841;BME280;68379;47.190;27.558;2023-07-31T12:29:43;99372.62;;;24.22;67.12
78841;BME280;68379;47.190;27.558;2023-07-31T12:32:23;99368.93;;;24.33;67.18
78841;BME280;68379;47.190;27.558;2023-07-31T12:34:53;99366.11;;;24.38;65.87
78841;BME280;68379;47.190;27.558;2023-07-31T12:37:22;99362.42;;;24.44;66.31
78841;BME280;68379;47.190;27.558;2023-07-31T12:39:51;99362.22;;;24.51;66.29
78841;BME280;68379;47.190;27.558;2023-07-31T12:42:20;99365.48;;;24.61;66.08
78841;BME280;68379;47.190;27.558;2023-07-31T12:44:49;99364.44;;;24.63;66.16
78841;BME280;68379;47.190;27.558;2023-07-31T12:47:18;99366.46;;;24.67;65.15
78841;BME280;68379;47.190;27.558;2023-07-31T12:49:47;99362.92;;;24.77;65.73
78841;BME280;68379;47.190;27.558;2023-07-31T12:52:15;99359.25;;;24.96;65.15
78841;BME280;68379;47.190;27.558;2023-07-31T12:54:44;99361.31;;;25.17;63.65
78841;BME280;68379;47.190;27.558;2023-07-31T12:57:13;99358.66;;;25.39;62.74
78841;BME280;68379;47.190;27.558;2023-07-31T12:59:42;99360.85;;;25.56;62.40
78841;BME280;68379;47.190;27.558;2023-07-31T13:02:11;99360.73;;;25.58;60.89
78841;BME280;68379;47.190;27.558;2023-07-31T13:04:40;99363.36;;;25.57;60.87
78841;BME280;68379;47.190;27.558;2023-07-31T13:07:09;99361.83;;;25.54;61.54
78841;BME280;68379;47.190;27.558;2023-07-31T13:09:38;99361.63;;;25.51;61.66
78841;BME280;68379;47.190;27.558;2023-07-31T13:12:08;99359.70;;;25.49;61.40
78841;BME280;68379;47.190;27.558;2023-07-31T13:14:37;99358.34;;;25.43;61.99
78841;BME280;68379;47.190;27.558;2023-07-31T13:17:06;99357.91;;;25.37;62.11
78841;BME280;68379;47.190;27.558;2023-07-31T13:19:35;99358.02;;;25.23;61.64
78841;BME280;68379;47.190;27.558;2023-07-31T13:22:04;99355.18;;;25.09;62.36
78841;BME280;68379;47.190;27.558;2023-07-31T13:24:33;99351.64;;;25.13;63.32
78841;BME280;68379;47.190;27.558;2023-07-31T13:27:03;99345.78;;;25.22;63.42
78841;BME280;68379;47.190;27.558;2023-07-31T13:29:32;99351.05;;;25.22;63.21
78841;BME280;68379;47.190;27.558;2023-07-31T13:32:02;99347.67;;;25.08;63.49
78841;BME280;68379;47.190;27.558;2023-07-31T13:34:31;99347.67;;;24.96;63.34
78841;BME280;68379;47.190;27.558;2023-07-31T13:37:00;99345.92;;;24.87;62.87
78841;BME280;68379;47.190;27.558;2023-07-31T13:39:29;99340.36;;;24.77;63.18
78841;BME280;68379;47.190;27.558;2023-07-31T13:41:57;99339.75;;;24.71;63.66
78841;BME280;68379;47.190;27.558;2023-07-31T13:44:27;99342.34;;;24.72;63.68
78841;BME280;68379;47.190;27.558;2023-07-31T13:46:56;99341.09;;;24.73;64.21
78841;BME280;68379;47.190;27.558;2023-07-31T13:49:25;99340.30;;;24.74;64.58
78841;BME280;68379;47.190;27.558;2023-07-31T13:51:54;99334.51;;;24.71;64.18
78841;BME280;68379;47.190;27.558;2023-07-31T13:54:24;99333.12;;;24.68;64.06
78841;BME280;68379;47.190;27.558;2023-07-31T13:56:54;99332.59;;;24.63;63.95